createdAt,value
2016-09-13T00:00:39.059Z,34.93
2016-09-13T00:01:39.081Z,35.12
2016-09-13T00:02:39.073Z,35.6
2016-09-13T00:03:39.054Z,35.41
2016-09-13T00:04:39.048Z,36.08
2016-09-13T00:05:39.520Z,37.04
2016-09-13T00:06:39.043Z,37.13
2016-09-13T00:07:39.033Z,36.65
2016-09-13T00:08:39.051Z,36.46
2016-09-13T00:09:39.027Z,36.36
2016-09-13T00:10:39.030Z,36.46
2016-09-13T00:11:39.043Z,36.65
2016-09-13T00:12:39.027Z,37.23
2016-09-13T00:13:39.011Z,38.09
2016-09-13T00:14:39.014Z,37.99
2016-09-13T00:15:39.025Z,37.9
2016-09-13T00:16:39.002Z,38.56
2016-09-13T00:17:38.996Z,38.95
2016-09-13T00:18:39.004Z,40.29
2016-09-13T00:19:38.989Z,40.21
2016-09-13T00:20:38.992Z,40.59
2016-09-13T00:21:39.029Z,40.69
2016-09-13T00:22:38.983Z,41.84
2016-09-13T00:23:38.982Z,43.08
2016-09-13T00:24:38.971Z,43.37
2016-09-13T00:25:38.972Z,42.6
2016-09-13T00:26:38.966Z,42.03
2016-09-13T00:27:38.979Z,41.94
2016-09-13T00:28:38.965Z,41.84
2016-09-13T00:29:38.957Z,41.27
2016-09-13T00:30:38.958Z,42.03
2016-09-13T00:31:38.958Z,42.41
2016-09-13T00:32:38.944Z,42.32
2016-09-13T00:33:38.954Z,41.94
2016-09-13T00:34:38.938Z,41.74
2016-09-13T00:35:38.933Z,42.41
2016-09-13T00:36:38.938Z,43.27
2016-09-13T00:37:38.929Z,42.9
2016-09-13T00:38:38.932Z,42.6
2016-09-13T00:39:38.920Z,43.18
2016-09-13T00:40:38.920Z,45.19
2016-09-13T00:41:38.926Z,46.15
2016-09-13T00:42:38.918Z,45.86
2016-09-13T00:43:38.915Z,46.05
2016-09-13T00:44:38.907Z,45
2016-09-13T00:45:38.907Z,44.52
2016-09-13T00:46:38.902Z,43.85
2016-09-13T00:47:38.893Z,43.27
2016-09-13T00:48:38.892Z,43.27
2016-09-13T00:49:38.893Z,43.18
2016-09-13T00:50:38.894Z,44.04
2016-09-13T00:51:38.882Z,43.27
2016-09-13T00:52:38.889Z,42.51
2016-09-13T00:53:38.877Z,42.51
2016-09-13T00:54:38.872Z,42.51
2016-09-13T00:55:38.871Z,42.22
2016-09-13T00:56:38.863Z,41.65
2016-09-13T00:57:38.862Z,40.78
2016-09-13T00:58:38.862Z,40.88
2016-09-13T00:59:38.862Z,40.69
2016-09-13T01:00:38.860Z,41.27
2016-09-13T01:01:38.849Z,42.13
2016-09-13T01:02:38.856Z,42.41
2016-09-13T01:03:38.843Z,42.03
2016-09-13T01:04:38.841Z,41.17
2016-09-13T01:05:38.848Z,41.17
2016-09-13T01:06:38.841Z,41.74
2016-09-13T01:07:38.831Z,43.27
2016-09-13T01:08:38.847Z,44.9
2016-09-13T01:09:38.820Z,45.29
2016-09-13T01:10:38.824Z,44.81
2016-09-13T01:11:38.825Z,44.23
2016-09-13T01:12:38.810Z,45.38
2016-09-13T01:13:38.812Z,45.76
2016-09-13T01:14:38.810Z,46.25
2016-09-13T01:15:38.801Z,46.91
2016-09-13T01:16:38.801Z,46.44
2016-09-13T01:17:38.811Z,47.2
2016-09-13T01:18:38.802Z,47.97
2016-09-13T01:19:38.796Z,48.73
2016-09-13T01:20:38.789Z,49.6
2016-09-13T01:21:38.793Z,50.74
2016-09-13T01:22:39.105Z,51.61
2016-09-13T01:23:39.092Z,52.75
2016-09-13T01:24:38.783Z,53.42
2016-09-13T01:25:38.767Z,53.23
2016-09-13T01:26:38.767Z,52.09
2016-09-13T01:27:38.777Z,51.79
2016-09-13T01:28:38.765Z,51.42
2016-09-13T01:29:38.760Z,51.7
2016-09-13T01:30:38.756Z,51.89
2016-09-13T01:31:38.786Z,51.22
2016-09-13T01:32:38.743Z,50.65
2016-09-13T01:33:38.748Z,52.75
2016-09-13T01:34:38.746Z,53.71
2016-09-13T01:35:38.739Z,54.86
2016-09-13T01:36:38.739Z,55.53
2016-09-13T01:37:38.732Z,55.53
2016-09-13T01:38:38.730Z,56.77
2016-09-13T01:39:38.723Z,56.59
2016-09-13T01:40:38.733Z,57.73
2016-09-13T01:41:38.733Z,58.4
2016-09-13T01:42:38.714Z,58.5
2016-09-13T01:43:38.711Z,58.31
2016-09-13T01:44:38.709Z,57.92
2016-09-13T01:45:38.717Z,57.26
2016-09-13T01:46:38.710Z,58.02
2016-09-13T01:47:38.705Z,58.59
2016-09-13T01:48:38.700Z,58.98
2016-09-13T01:49:39.026Z,59.27
2016-09-13T01:50:38.698Z,59.84
2016-09-13T01:51:38.704Z,60.51
2016-09-13T01:52:38.683Z,61.47
2016-09-13T01:53:38.686Z,62.26
2016-09-13T01:54:38.678Z,63.1
2016-09-13T01:55:38.685Z,63.13
2016-09-13T01:56:38.670Z,63.03
2016-09-13T01:57:38.677Z,62.65
2016-09-13T01:58:38.666Z,62.55
2016-09-13T01:59:38.668Z,61.28
2016-09-13T02:00:38.665Z,59.94
2016-09-13T02:01:38.982Z,59.27
2016-09-13T02:02:38.649Z,58.34
2016-09-13T02:03:38.654Z,59.65
2016-09-13T02:04:38.647Z,60.13
2016-09-13T02:05:38.645Z,59.17
2016-09-13T02:06:38.643Z,59.45
2016-09-13T02:07:38.643Z,60.32
2016-09-13T02:08:38.633Z,61.47
2016-09-13T02:09:38.631Z,61.47
2016-09-13T02:10:38.637Z,59.68
2016-09-13T02:11:38.632Z,58.53
2016-09-13T02:12:38.622Z,56.77
2016-09-13T02:13:38.638Z,56.77
2016-09-13T02:14:38.613Z,58.02
2016-09-13T02:15:38.614Z,59.45
2016-09-13T02:16:38.607Z,59.75
2016-09-13T02:17:38.603Z,59.58
2016-09-13T02:18:38.603Z,58.4
2016-09-13T02:19:38.605Z,57.26
2016-09-13T02:20:38.604Z,57.64
2016-09-13T02:21:38.615Z,58.88
2016-09-13T02:22:38.588Z,60.03
2016-09-13T02:23:38.594Z,60.7
2016-09-13T02:24:38.583Z,61.57
2016-09-13T02:25:38.582Z,62.14
2016-09-13T02:26:38.578Z,62.71
2016-09-13T02:27:38.574Z,63
2016-09-13T02:28:38.582Z,63.8
2016-09-13T02:29:38.586Z,63.89
2016-09-13T02:30:38.580Z,64.95
2016-09-13T02:31:38.561Z,65.05
2016-09-13T02:32:38.559Z,65.05
2016-09-13T02:33:38.554Z,65.33
2016-09-13T02:34:38.558Z,65.52
2016-09-13T02:35:38.550Z,65.52
2016-09-13T02:36:38.554Z,65.91
2016-09-13T02:37:38.542Z,66.77
2016-09-13T02:38:38.537Z,67.15
2016-09-13T02:39:38.545Z,67.05
2016-09-13T02:40:38.545Z,66.29
2016-09-13T02:41:38.544Z,66.09
2016-09-13T02:42:38.525Z,66.48
2016-09-13T02:43:38.526Z,65.81
2016-09-13T02:44:38.522Z,64.85
2016-09-13T02:45:38.522Z,63.86
2016-09-13T02:46:38.513Z,63.48
2016-09-13T02:47:38.512Z,62.33
2016-09-13T02:48:38.516Z,62.33
2016-09-13T02:49:38.513Z,61.57
2016-09-13T02:50:38.505Z,60.89
2016-09-13T02:51:38.507Z,60.22
2016-09-13T02:52:38.500Z,58.79
2016-09-13T02:53:38.495Z,58.02
2016-09-13T02:54:38.489Z,56.97
2016-09-13T02:55:38.488Z,56.39
2016-09-13T02:56:38.480Z,56.1
2016-09-13T02:57:38.798Z,55.73
2016-09-13T02:58:38.482Z,55.05
2016-09-13T02:59:38.495Z,55.05
2016-09-13T03:00:38.467Z,54.1
2016-09-13T03:01:38.471Z,53.91
2016-09-13T03:02:38.463Z,53.91
2016-09-13T03:03:38.466Z,53.81
2016-09-13T03:04:38.469Z,53.97
2016-09-13T03:05:38.463Z,54.38
2016-09-13T03:06:38.454Z,54.38
2016-09-13T03:07:38.763Z,54.38
2016-09-13T03:08:38.448Z,53.81
2016-09-13T03:09:38.439Z,53.14
2016-09-13T03:10:38.435Z,52.18
2016-09-13T03:11:38.782Z,51.22
2016-09-13T03:12:38.429Z,51.01
2016-09-13T03:13:38.431Z,50.81
2016-09-13T03:14:38.424Z,50.62
2016-09-13T03:15:38.432Z,49.98
2016-09-13T03:16:38.416Z,49.48
2016-09-13T03:17:38.414Z,49.29
2016-09-13T03:18:38.421Z,49.66
2016-09-13T03:19:38.416Z,49.66
2016-09-13T03:20:38.402Z,50.24
2016-09-13T03:21:38.405Z,50.15
2016-09-13T03:22:38.393Z,50.34
2016-09-13T03:23:38.397Z,49.95
2016-09-13T03:24:38.391Z,49.95
2016-09-13T03:25:38.391Z,49.57
2016-09-13T03:26:38.386Z,49.29
2016-09-13T03:27:38.394Z,48.52
2016-09-13T03:28:38.385Z,48.23
2016-09-13T03:29:38.394Z,48.33
2016-09-13T03:30:38.372Z,48.61
2016-09-13T03:31:38.372Z,48.13
2016-09-13T03:32:38.363Z,48.23
2016-09-13T03:33:38.360Z,47.85
2016-09-13T03:34:38.362Z,46.61
2016-09-13T03:35:38.350Z,46.12
2016-09-13T03:36:38.355Z,45.45
2016-09-13T03:37:38.352Z,45.65
2016-09-13T03:38:38.358Z,45.36
2016-09-13T03:39:38.341Z,45.26
2016-09-13T03:40:38.339Z,45.26
2016-09-13T03:41:38.334Z,45.26
2016-09-13T03:42:38.331Z,44.98
2016-09-13T03:43:38.326Z,44.69
2016-09-13T03:44:38.323Z,43.92
2016-09-13T03:45:38.317Z,43.54
2016-09-13T03:46:38.319Z,43.92
2016-09-13T03:47:38.312Z,43.92
2016-09-13T03:48:38.312Z,43.44
2016-09-13T03:49:38.306Z,43.23
2016-09-13T03:50:38.303Z,42.47
2016-09-13T03:51:38.300Z,42.37
2016-09-13T03:52:38.290Z,41.8
2016-09-13T03:53:38.296Z,42.08
2016-09-13T03:54:38.287Z,41.7
2016-09-13T03:55:38.283Z,41.03
2016-09-13T03:56:38.285Z,41.13
2016-09-13T03:57:38.292Z,40.55
2016-09-13T03:58:38.267Z,40.65
2016-09-13T03:59:38.272Z,40.36
2016-09-13T04:00:38.270Z,40.46
2016-09-13T04:01:38.263Z,40.46
2016-09-13T04:02:38.258Z,40.08
2016-09-13T04:03:38.255Z,39.79
2016-09-13T04:04:38.248Z,39.31
2016-09-13T04:05:38.253Z,38.74
2016-09-13T04:06:38.248Z,38.45
2016-09-13T04:07:38.256Z,37.88
2016-09-13T04:08:38.229Z,37.49
2016-09-13T04:09:38.549Z,37.78
2016-09-13T04:10:38.277Z,37.11
2016-09-13T04:11:38.231Z,37.3
2016-09-13T04:12:38.226Z,36.54
2016-09-13T04:13:38.213Z,36.73
2016-09-13T04:14:38.215Z,36.35
2016-09-13T04:15:38.215Z,36.35
2016-09-13T04:16:38.205Z,36.15
2016-09-13T04:17:38.199Z,36.25
2016-09-13T04:18:38.211Z,36.54
2016-09-13T04:19:38.193Z,35.96
2016-09-13T04:20:38.191Z,35.49
2016-09-13T04:21:38.191Z,35.49
2016-09-13T04:22:38.187Z,35.2
2016-09-13T04:23:38.179Z,35.2
2016-09-13T04:24:38.191Z,34.91
2016-09-13T04:25:38.177Z,34.72
2016-09-13T04:26:38.165Z,35
2016-09-13T04:27:38.174Z,34.43
2016-09-13T04:28:38.173Z,34.05
2016-09-13T04:29:38.180Z,33.76
2016-09-13T04:30:38.157Z,33.57
2016-09-13T04:31:38.152Z,33.57
2016-09-13T04:32:38.146Z,33.09
2016-09-13T04:33:38.150Z,33.09
2016-09-13T04:34:38.153Z,32.71
2016-09-13T04:35:38.131Z,32.23
2016-09-13T04:36:38.129Z,32.23
2016-09-13T04:37:38.125Z,32.52
2016-09-13T04:38:38.130Z,32.42
2016-09-13T04:39:38.119Z,32.52
2016-09-13T04:40:38.122Z,32.03
2016-09-13T04:41:38.114Z,31.47
2016-09-13T04:42:38.108Z,31.47
2016-09-13T04:43:38.123Z,31.47
2016-09-13T04:44:38.118Z,30.99
2016-09-13T04:45:38.101Z,30.98
2016-09-13T04:46:38.095Z,30.9
2016-09-13T04:47:38.088Z,30.41
2016-09-13T04:48:38.086Z,30.41
2016-09-13T04:49:38.075Z,30.61
2016-09-13T04:50:38.072Z,30.32
2016-09-13T04:51:38.078Z,30.13
2016-09-13T04:52:38.069Z,29.65
2016-09-13T04:53:38.063Z,29.74
2016-09-13T04:54:38.058Z,29.55
2016-09-13T04:55:38.058Z,29.46
2016-09-13T04:56:38.050Z,29.08
2016-09-13T04:57:38.045Z,29.36
2016-09-13T04:58:38.046Z,29.36
2016-09-13T04:59:38.034Z,29.27
2016-09-13T05:00:38.032Z,29.55
2016-09-13T05:01:38.040Z,29.08
2016-09-13T05:02:38.026Z,28.98
2016-09-13T05:03:38.015Z,29.08
2016-09-13T05:04:38.015Z,29.27
2016-09-13T05:05:38.007Z,29.74
2016-09-13T05:06:38.034Z,29.46
2016-09-13T05:07:38.023Z,29.74
2016-09-13T05:08:37.995Z,31.27
2016-09-13T05:09:37.995Z,32.44
2016-09-13T05:10:38.002Z,33.49
2016-09-13T05:11:37.994Z,34.93
2016-09-13T05:12:37.986Z,35.88
2016-09-13T05:13:37.979Z,36.75
2016-09-13T05:14:37.977Z,37.9
2016-09-13T05:15:38.169Z,38.2
2016-09-13T05:16:37.971Z,38.59
2016-09-13T05:17:37.960Z,38.78
2016-09-13T05:18:37.960Z,38.87
2016-09-13T05:19:38.007Z,39.06
2016-09-13T05:20:37.951Z,40.12
2016-09-13T05:21:37.951Z,41.65
2016-09-13T05:22:37.949Z,41.84
2016-09-13T05:23:37.941Z,43.08
2016-09-13T05:24:37.939Z,43.18
2016-09-13T05:25:37.942Z,42.6
2016-09-13T05:26:37.927Z,43.08
2016-09-13T05:27:37.929Z,43.27
2016-09-13T05:28:37.932Z,43.27
2016-09-13T05:29:37.934Z,43.85
2016-09-13T05:30:37.920Z,44.62
2016-09-13T05:31:37.912Z,45.48
2016-09-13T05:32:37.910Z,46.26
2016-09-13T05:33:37.903Z,46.36
2016-09-13T05:34:37.905Z,47.99
2016-09-13T05:35:37.908Z,48.66
2016-09-13T05:36:37.900Z,49.05
2016-09-13T05:37:37.894Z,49.62
2016-09-13T05:38:37.885Z,50
2016-09-13T05:39:37.884Z,49.43
2016-09-13T05:40:37.888Z,47.8
2016-09-13T05:41:37.881Z,46.26
2016-09-13T05:42:37.874Z,46.84
2016-09-13T05:43:37.871Z,47.22
2016-09-13T05:44:37.870Z,46.36
2016-09-13T05:45:37.878Z,45.98
2016-09-13T05:46:37.865Z,46.17
2016-09-13T05:47:37.866Z,47.13
2016-09-13T05:48:37.865Z,47.13
2016-09-13T05:49:37.855Z,47.22
2016-09-13T05:50:37.850Z,48.18
2016-09-13T05:51:38.052Z,49.14
2016-09-13T05:52:37.846Z,48.49
2016-09-13T05:53:37.836Z,47.34
2016-09-13T05:54:37.845Z,47.82
2016-09-13T05:55:37.832Z,48.11
2016-09-13T05:56:37.831Z,48.49
2016-09-13T05:57:37.838Z,48.4
2016-09-13T05:58:37.824Z,48.21
2016-09-13T05:59:37.820Z,46.19
2016-09-13T06:00:37.822Z,45.9
2016-09-13T06:01:37.820Z,45.62
2016-09-13T06:02:37.814Z,46.1
2016-09-13T06:03:37.810Z,46.29
2016-09-13T06:04:37.817Z,46.67
2016-09-13T06:05:37.811Z,46.96
2016-09-13T06:06:37.811Z,47.25
2016-09-13T06:07:37.801Z,47.34
2016-09-13T06:08:37.808Z,47.34
2016-09-13T06:09:37.801Z,47.63
2016-09-13T06:10:37.789Z,47.34
2016-09-13T06:11:37.788Z,47.34
2016-09-13T06:12:37.783Z,47.25
2016-09-13T06:13:37.786Z,46.86
2016-09-13T06:14:37.785Z,47.25
2016-09-13T06:15:37.776Z,45.52
2016-09-13T06:16:37.777Z,46.22
2016-09-13T06:17:37.778Z,47.85
2016-09-13T06:18:37.774Z,49.19
2016-09-13T06:19:37.770Z,49.76
2016-09-13T06:20:37.762Z,48.43
2016-09-13T06:21:37.760Z,47.46
2016-09-13T06:22:38.078Z,47.85
2016-09-13T06:23:37.753Z,49.76
2016-09-13T06:24:37.751Z,49.76
2016-09-13T06:25:37.750Z,49.19
2016-09-13T06:26:37.754Z,49.38
2016-09-13T06:27:37.749Z,49.69
2016-09-13T06:28:37.741Z,49.12
2016-09-13T06:29:37.744Z,49.79
2016-09-13T06:30:37.738Z,50.84
2016-09-13T06:31:37.737Z,54.11
2016-09-13T06:32:37.735Z,54.68
2016-09-13T06:33:37.726Z,56.51
2016-09-13T06:34:37.728Z,56.89
2016-09-13T06:35:37.727Z,56.89
2016-09-13T06:36:37.722Z,55.96
2016-09-13T06:37:37.733Z,56.15
2016-09-13T06:38:37.725Z,56.05
2016-09-13T06:39:37.730Z,55.29
2016-09-13T06:40:37.714Z,55.57
2016-09-13T06:41:37.714Z,58.55
2016-09-13T06:42:37.707Z,60.08
2016-09-13T06:43:37.711Z,59.8
2016-09-13T06:44:37.711Z,59.32
2016-09-13T06:45:37.713Z,58.77
2016-09-13T06:46:37.704Z,58.26
2016-09-13T06:47:37.698Z,58.64
2016-09-13T06:48:37.695Z,60.4
2016-09-13T06:49:37.708Z,60.98
2016-09-13T06:50:37.698Z,62.04
2016-09-13T06:51:37.689Z,61.36
2016-09-13T06:52:37.689Z,62.04
2016-09-13T06:53:37.681Z,61.27
2016-09-13T06:54:37.684Z,60.98
2016-09-13T06:55:37.691Z,60.78
2016-09-13T06:56:37.679Z,61.27
2016-09-13T06:57:37.686Z,62.81
2016-09-13T06:58:37.677Z,62.84
2016-09-13T06:59:37.679Z,63.7
2016-09-13T07:00:37.682Z,64.56
2016-09-13T07:01:37.668Z,64.18
2016-09-13T07:02:37.673Z,63.99
2016-09-13T07:03:37.984Z,64.56
2016-09-13T07:04:37.666Z,65.37
2016-09-13T07:05:37.667Z,66.52
2016-09-13T07:06:37.667Z,70.56
2016-09-13T07:07:37.666Z,69.6
2016-09-13T07:08:37.671Z,68.86
2016-09-13T07:09:37.666Z,71.08
2016-09-13T07:10:37.672Z,72.52
2016-09-13T07:11:37.663Z,71.08
2016-09-13T07:12:37.667Z,74.05
2016-09-13T07:13:37.663Z,74.96
2016-09-13T07:14:37.656Z,74.96
2016-09-13T07:15:37.659Z,75.73
2016-09-13T07:16:37.651Z,75.24
2016-09-13T07:17:37.654Z,75.63
2016-09-13T07:18:37.655Z,78.03
2016-09-13T07:19:37.719Z,76.98
2016-09-13T07:20:37.650Z,79.38
2016-09-13T07:21:37.654Z,79.1
2016-09-13T07:22:37.646Z,78.17
2016-09-13T07:23:37.662Z,79.61
2016-09-13T07:24:37.651Z,79.81
2016-09-13T07:25:37.970Z,77.78
2016-09-13T07:26:37.650Z,77.88
2016-09-13T07:27:37.649Z,76.06
2016-09-13T07:28:37.640Z,77.69
2016-09-13T07:29:37.967Z,76.06
2016-09-13T07:30:37.656Z,76.34
2016-09-13T07:31:37.645Z,75.57
2016-09-13T07:32:37.647Z,77.98
2016-09-13T07:33:37.644Z,79.13
2016-09-13T07:34:37.642Z,77.31
2016-09-13T07:35:37.646Z,78.56
2016-09-13T07:36:37.642Z,77.69
2016-09-13T07:37:37.645Z,77.92
2016-09-13T07:38:37.656Z,78.46
2016-09-13T07:39:37.654Z,81.1
2016-09-13T07:40:37.644Z,85.63
2016-09-13T07:41:37.645Z,89.58
2016-09-13T07:42:37.639Z,91.69
2016-09-13T07:43:37.644Z,95.84
2016-09-13T07:44:37.642Z,95.4
2016-09-13T07:45:37.642Z,94.82
2016-09-13T07:46:37.640Z,95.89
2016-09-13T07:47:37.645Z,96.17
2016-09-13T07:48:37.640Z,96.12
2016-09-13T07:49:37.640Z,97.38
2016-09-13T07:50:37.651Z,99.79
2016-09-13T07:51:37.677Z,97.47
2016-09-13T07:52:37.651Z,97.33
2016-09-13T07:53:37.642Z,93.57
2016-09-13T07:54:37.645Z,97.14
2016-09-13T07:55:37.645Z,95.4
2016-09-13T07:56:37.649Z,97.09
2016-09-13T07:57:37.654Z,97.19
2016-09-13T07:58:37.649Z,93.04
2016-09-13T07:59:37.647Z,93.9
2016-09-13T08:00:37.644Z,90.14
2016-09-13T08:01:37.664Z,91.88
2016-09-13T08:02:37.648Z,91.59
2016-09-13T08:03:37.656Z,93.62
2016-09-13T08:04:37.656Z,99.26
2016-09-13T08:05:37.655Z,99.99
2016-09-13T08:06:37.656Z,99.99
2016-09-13T08:07:37.658Z,99.99
2016-09-13T08:08:37.673Z,99.99
2016-09-13T08:09:38.010Z,99.99
2016-09-13T08:10:37.668Z,99.99
2016-09-13T08:11:37.659Z,99.99
2016-09-13T08:12:37.660Z,99.99
2016-09-13T08:13:37.660Z,99.99
2016-09-13T08:14:38.042Z,99.99
2016-09-13T08:15:37.662Z,99.99
2016-09-13T08:16:37.669Z,99.99
2016-09-13T08:17:37.670Z,99.99
2016-09-13T08:18:37.667Z,99.99
2016-09-13T08:19:37.675Z,99.99
2016-09-13T08:20:37.676Z,99.99
2016-09-13T08:21:37.679Z,99.99
2016-09-13T08:22:37.675Z,99.99
2016-09-13T08:23:37.676Z,99.99
2016-09-13T08:24:37.687Z,99.99
2016-09-13T08:25:37.687Z,99.99
2016-09-13T08:26:37.699Z,99.99
2016-09-13T08:27:37.686Z,99.99
2016-09-13T08:28:37.694Z,99.99
2016-09-13T08:29:37.687Z,99.99
2016-09-13T08:30:37.699Z,93.95
2016-09-13T08:31:37.707Z,94.43
2016-09-13T08:32:37.698Z,96.99
2016-09-13T08:33:37.693Z,87.2
2016-09-13T08:34:37.695Z,86.72
2016-09-13T08:35:37.700Z,90.29
2016-09-13T08:36:37.699Z,89.51
2016-09-13T08:37:37.704Z,88.65
2016-09-13T08:38:37.709Z,96.66
2016-09-13T08:39:37.707Z,99.16
2016-09-13T08:40:37.711Z,98.97
2016-09-13T08:41:37.708Z,99.07
2016-09-13T08:42:37.716Z,95.31
2016-09-13T08:43:37.727Z,99.99
2016-09-13T08:44:37.717Z,99.99
2016-09-13T08:45:37.721Z,99.99
2016-09-13T08:46:38.068Z,99.99
2016-09-13T08:47:37.728Z,99.99
2016-09-13T08:48:37.732Z,99.99
2016-09-13T08:49:37.723Z,99.99
2016-09-13T08:50:37.722Z,99.99
2016-09-13T08:51:37.733Z,99.99
2016-09-13T08:52:37.727Z,99.99
2016-09-13T08:53:37.736Z,99.99
2016-09-13T08:54:37.729Z,99.99
2016-09-13T08:55:37.740Z,99.99
2016-09-13T08:56:37.730Z,99.99
2016-09-13T08:57:37.737Z,99.99
2016-09-13T08:58:37.740Z,99.99
2016-09-13T08:59:37.743Z,99.99
2016-09-13T09:00:37.748Z,99.99
2016-09-13T09:01:37.754Z,99.99
2016-09-13T09:02:37.749Z,99.99
2016-09-13T09:03:37.745Z,99.99
2016-09-13T09:04:37.749Z,99.99
2016-09-13T09:05:37.753Z,99.99
2016-09-13T09:06:37.759Z,99.99
2016-09-13T09:07:37.755Z,99.99
2016-09-13T09:08:37.756Z,99.99
2016-09-13T09:09:37.760Z,99.99
2016-09-13T09:10:37.761Z,99.99
2016-09-13T09:11:37.767Z,99.99
2016-09-13T09:12:37.762Z,99.99
2016-09-13T09:13:37.769Z,99.99
2016-09-13T09:14:37.772Z,99.99
2016-09-13T09:15:37.770Z,99.99
2016-09-13T09:16:37.769Z,99.99
2016-09-13T09:17:37.774Z,99.99
2016-09-13T09:18:37.776Z,99.99
2016-09-13T09:19:37.784Z,99.99
2016-09-13T09:20:37.791Z,99.99
2016-09-13T09:21:37.792Z,99.99
2016-09-13T09:22:37.797Z,99.99
2016-09-13T09:23:37.794Z,99.99
2016-09-13T09:24:37.797Z,99.99
2016-09-13T09:25:38.112Z,99.99
2016-09-13T09:26:38.121Z,99.99
2016-09-13T09:27:37.807Z,99.99
2016-09-13T09:28:37.815Z,96.02
2016-09-13T09:29:37.811Z,93.06
2016-09-13T09:30:37.819Z,88.99
2016-09-13T09:31:37.814Z,99.99
2016-09-13T09:32:37.820Z,96.94
2016-09-13T09:33:37.839Z,91.31
2016-09-13T09:34:37.822Z,91.12
2016-09-13T09:35:37.823Z,88.21
2016-09-13T09:36:37.833Z,83.85
2016-09-13T09:37:37.837Z,79.68
2016-09-13T09:38:37.850Z,75.84
2016-09-13T09:39:37.837Z,85.69
2016-09-13T09:40:37.845Z,87.09
2016-09-13T09:41:37.842Z,87.19
2016-09-13T09:42:37.847Z,90.88
2016-09-13T09:43:37.853Z,91.55
2016-09-13T09:44:37.856Z,88.93
2016-09-13T09:45:37.866Z,76.32
2016-09-13T09:46:37.862Z,77.78
2016-09-13T09:47:37.880Z,76.46
2016-09-13T09:48:37.868Z,72.25
2016-09-13T09:49:37.871Z,68.21
2016-09-13T09:50:37.873Z,69.96
2016-09-13T09:51:37.881Z,69.96
2016-09-13T09:52:37.883Z,74.04
2016-09-13T09:53:37.885Z,69.76
2016-09-13T09:54:37.894Z,67.83
2016-09-13T09:55:37.892Z,69.24
2016-09-13T09:56:37.893Z,69.18
2016-09-13T09:57:37.901Z,67.44
2016-09-13T09:58:37.899Z,86.46
2016-09-13T09:59:37.903Z,93.25
2016-09-13T10:00:37.909Z,99.99
2016-09-13T10:01:38.229Z,94.12
2016-09-13T10:02:37.919Z,98.39
2016-09-13T10:03:37.920Z,93.25
2016-09-13T10:04:37.920Z,85.97
2016-09-13T10:05:37.928Z,84.03
2016-09-13T10:06:37.928Z,79.66
2016-09-13T10:07:37.931Z,74.81
2016-09-13T10:08:37.932Z,74.71
2016-09-13T10:09:37.943Z,76.91
2016-09-13T10:10:37.946Z,81.66
2016-09-13T10:11:37.945Z,77.29
2016-09-13T10:12:37.959Z,70.31
2016-09-13T10:13:37.961Z,84.57
2016-09-13T10:14:37.958Z,75.07
2016-09-13T10:15:37.962Z,70.31
2016-09-13T10:16:37.969Z,64.62
2016-09-13T10:17:37.968Z,61.81
2016-09-13T10:18:37.974Z,73.49
2016-09-13T10:19:38.178Z,69.8
2016-09-13T10:20:37.988Z,61.35
2016-09-13T10:21:37.987Z,56.79
2016-09-13T10:22:37.994Z,56.11
2016-09-13T10:23:38.001Z,54.66
2016-09-13T10:24:38.001Z,51.91
2016-09-13T10:25:38.007Z,51.91
2016-09-13T10:26:38.001Z,51.91
2016-09-13T10:27:38.012Z,53.08
2016-09-13T10:28:38.011Z,53.75
2016-09-13T10:29:38.017Z,53
2016-09-13T10:30:38.023Z,52.72
2016-09-13T10:31:38.049Z,51.77
2016-09-13T10:32:38.028Z,50.51
2016-09-13T10:33:38.035Z,52.64
2016-09-13T10:34:38.036Z,52.37
2016-09-13T10:35:38.041Z,46.64
2016-09-13T10:36:38.047Z,44.21
2016-09-13T10:37:38.048Z,42.49
2016-09-13T10:38:38.375Z,42.1
2016-09-13T10:39:38.062Z,41.71
2016-09-13T10:40:38.064Z,41.51
2016-09-13T10:41:38.072Z,41.51
2016-09-13T10:42:38.077Z,45.69
2016-09-13T10:43:38.100Z,48.22
2016-09-13T10:44:38.116Z,51.92
2016-09-13T10:45:38.089Z,45.91
2016-09-13T10:46:38.107Z,42.68
2016-09-13T10:47:38.136Z,42.87
2016-09-13T10:48:38.108Z,42
2016-09-13T10:49:38.101Z,40.93
2016-09-13T10:50:38.111Z,44.53
2016-09-13T10:51:38.111Z,48.51
2016-09-13T10:52:38.116Z,48.32
2016-09-13T10:53:38.124Z,44.04
2016-09-13T10:54:38.123Z,42.97
2016-09-13T10:55:38.131Z,42.39
2016-09-13T10:56:38.130Z,41.8
2016-09-13T10:57:38.137Z,40.44
2016-09-13T10:58:38.144Z,40.34
2016-09-13T10:59:38.150Z,40.93
2016-09-13T11:00:38.154Z,41.71
2016-09-13T11:01:38.160Z,38.7
2016-09-13T11:02:38.167Z,38.77
2016-09-13T11:03:38.489Z,40.25
2016-09-13T11:04:38.221Z,41.3
2016-09-13T11:05:38.176Z,40.64
2016-09-13T11:06:38.176Z,39.36
2016-09-13T11:07:38.704Z,38.57
2016-09-13T11:08:38.189Z,38.77
2016-09-13T11:09:38.194Z,38.11
2016-09-13T11:10:38.197Z,40.54
2016-09-13T11:11:38.204Z,40.25
2016-09-13T11:12:38.206Z,39.18
2016-09-13T11:13:38.212Z,38.79
2016-09-13T11:14:38.213Z,39.08
2016-09-13T11:15:38.226Z,41.9
2016-09-13T11:16:38.234Z,38.5
2016-09-13T11:17:38.238Z,37.82
2016-09-13T11:18:38.240Z,37.72
2016-09-13T11:19:38.308Z,42.19
2016-09-13T11:20:38.256Z,41.03
2016-09-13T11:21:38.262Z,40.17
2016-09-13T11:22:38.265Z,39.59
2016-09-13T11:23:38.275Z,42.41
2016-09-13T11:24:38.275Z,42.02
2016-09-13T11:25:38.267Z,40.95
2016-09-13T11:26:38.277Z,40.08
2016-09-13T11:27:38.281Z,39.39
2016-09-13T11:28:38.284Z,39.1
2016-09-13T11:29:38.292Z,38.64
2016-09-13T11:30:38.298Z,39.41
2016-09-13T11:31:38.307Z,39.61
2016-09-13T11:32:38.312Z,37.85
2016-09-13T11:33:38.319Z,36.2
2016-09-13T11:34:38.318Z,36
2016-09-13T11:35:38.323Z,35.73
2016-09-13T11:36:38.329Z,36.12
2016-09-13T11:37:38.334Z,37.77
2016-09-13T11:38:38.339Z,38.26
2016-09-13T11:39:38.347Z,38.26
2016-09-13T11:40:38.355Z,38.75
2016-09-13T11:41:38.690Z,41.86
2016-09-13T11:42:38.366Z,40.7
2016-09-13T11:43:38.374Z,38.36
2016-09-13T11:44:38.369Z,37.41
2016-09-13T11:45:38.381Z,38.09
2016-09-13T11:46:38.382Z,35.94
2016-09-13T11:47:38.390Z,34.29
2016-09-13T11:48:38.409Z,33.51
2016-09-13T11:49:38.403Z,34.47
2016-09-13T11:50:38.406Z,35.53
2016-09-13T11:51:38.414Z,36.61
2016-09-13T11:52:38.421Z,36.59
2016-09-13T11:53:38.431Z,38.54
2016-09-13T11:54:38.435Z,37.95
2016-09-13T11:55:38.444Z,44.48
2016-09-13T11:56:38.446Z,44.67
2016-09-13T11:57:38.454Z,42.14
2016-09-13T11:58:38.448Z,41.73
2016-09-13T11:59:38.459Z,40.56
2016-09-13T12:00:38.467Z,38.81
2016-09-13T12:01:38.476Z,37.93
2016-09-13T12:02:38.472Z,38.62
2016-09-13T12:03:38.476Z,38.71
2016-09-13T12:04:38.483Z,39.39
2016-09-13T12:05:38.487Z,39.88
2016-09-13T12:06:38.490Z,39.59
2016-09-13T12:07:38.500Z,39.51
2016-09-13T12:08:39.014Z,39.2
2016-09-13T12:09:38.509Z,38.81
2016-09-13T12:10:38.517Z,38.71
2016-09-13T12:11:38.521Z,38.62
2016-09-13T12:12:38.531Z,38.98
2016-09-13T12:13:38.529Z,38.7
2016-09-13T12:14:38.535Z,38.4
2016-09-13T12:15:38.540Z,38.6
2016-09-13T12:16:38.547Z,41.8
2016-09-13T12:17:38.556Z,48.2
2016-09-13T12:18:38.561Z,49.46
2016-09-13T12:19:38.616Z,47.52
2016-09-13T12:20:38.567Z,44.51
2016-09-13T12:21:38.570Z,43.82
2016-09-13T12:22:38.573Z,44.21
2016-09-13T12:23:38.578Z,48.2
2016-09-13T12:24:38.585Z,56.68
2016-09-13T12:25:38.587Z,65.01
2016-09-13T12:26:38.595Z,69.38
2016-09-13T12:27:38.602Z,63.94
2016-09-13T12:28:38.606Z,56.36
2016-09-13T12:29:38.607Z,52.31
2016-09-13T12:30:38.621Z,50.07
2016-09-13T12:31:38.625Z,48.41
2016-09-13T12:32:38.638Z,46.57
2016-09-13T12:33:38.635Z,42.9
2016-09-13T12:34:38.635Z,40.85
2016-09-13T12:35:38.642Z,38.62
2016-09-13T12:36:38.661Z,36.77
2016-09-13T12:37:38.654Z,39.41
2016-09-13T12:38:38.665Z,38.73
2016-09-13T12:39:38.660Z,38.54
2016-09-13T12:40:38.681Z,38.64
2016-09-13T12:41:38.675Z,37.66
2016-09-13T12:42:38.680Z,37.46
2016-09-13T12:43:38.682Z,39.51
2016-09-13T12:44:38.686Z,38.44
2016-09-13T12:45:38.693Z,38.34
2016-09-13T12:46:38.716Z,38.34
2016-09-13T12:47:38.704Z,37.95
2016-09-13T12:48:38.813Z,37.85
2016-09-13T12:49:38.852Z,36.4
2016-09-13T12:50:38.826Z,36.49
2016-09-13T12:51:38.852Z,36
2016-09-13T12:52:38.830Z,36
2016-09-13T12:53:38.838Z,35.11
2016-09-13T12:54:38.840Z,35.5
2016-09-13T12:55:38.857Z,39.59